createdAt,value
2018-04-06T00:01:59.176Z,38.10
2018-04-06T00:04:26.775Z,38.10
2018-04-06T00:06:54.375Z,38.20
2018-04-06T00:09:21.951Z,38.30
2018-04-06T00:11:49.580Z,38.20
2018-04-06T00:14:17.923Z,38.20
2018-04-06T00:16:45.523Z,38.20
2018-04-06T00:19:13.127Z,38.20
2018-04-06T00:21:40.755Z,38.20
2018-04-06T00:24:08.380Z,38.10
2018-04-06T00:26:35.947Z,38.10
2018-04-06T00:29:03.567Z,38.20
2018-04-06T00:31:31.144Z,38.20
2018-04-06T00:33:58.751Z,38.20
2018-04-06T00:36:26.322Z,38.20
2018-04-06T00:38:53.923Z,38.20
2018-04-06T00:41:22.315Z,38.90
2018-04-06T00:43:49.899Z,38.10
2018-04-06T00:46:18.265Z,38.20
2018-04-06T00:48:45.836Z,38.10
2018-04-06T00:51:13.440Z,38.80
2018-04-06T00:53:47.970Z,38.10
2018-04-06T00:56:15.571Z,38.10
2018-04-06T00:58:43.140Z,38.10
2018-04-06T01:01:10.739Z,38.20
2018-04-06T01:03:38.812Z,38.20
2018-04-06T01:06:06.379Z,38.20
2018-04-06T01:08:34.743Z,38.10
2018-04-06T01:11:02.315Z,38.10
2018-04-06T01:13:29.921Z,38.10
2018-04-06T01:15:57.532Z,38.10
2018-04-06T01:18:25.900Z,38.10
2018-04-06T01:20:53.503Z,38.10
2018-04-06T01:23:21.076Z,38.10
2018-04-06T01:25:48.703Z,38.10
2018-04-06T01:28:17.048Z,38.20
2018-04-06T01:30:44.643Z,38.10
2018-04-06T01:33:12.212Z,38.20
2018-04-06T01:35:39.812Z,38.20
2018-04-06T01:38:07.439Z,38.10
2018-04-06T01:40:35.779Z,38.20
2018-04-06T01:43:03.379Z,38.20
2018-04-06T01:45:30.956Z,38.20
2018-04-06T01:47:58.574Z,38.20
2018-04-06T01:50:26.142Z,38.30
2018-04-06T01:52:53.813Z,38.30
2018-04-06T01:55:21.410Z,38.20
2018-04-06T01:57:48.981Z,38.30
2018-04-06T02:00:16.639Z,38.30
2018-04-06T02:02:44.214Z,38.20
2018-04-06T02:05:11.815Z,38.30
2018-04-06T02:07:39.386Z,38.20
2018-04-06T02:10:06.992Z,38.30
2018-04-06T02:12:34.593Z,38.20
2018-04-06T02:15:02.204Z,38.20
2018-04-06T02:17:29.799Z,38.30
2018-04-06T02:19:57.371Z,38.30
2018-04-06T02:22:24.971Z,38.80
2018-04-06T02:24:52.545Z,38.90
2018-04-06T02:27:20.158Z,38.30
2018-04-06T02:29:48.551Z,38.40
2018-04-06T02:32:16.891Z,38.30
2018-04-06T02:34:44.492Z,38.30
2018-04-06T02:37:12.079Z,38.30
2018-04-06T02:39:39.683Z,38.30
2018-04-06T02:42:07.273Z,38.30
2018-04-06T02:44:34.884Z,38.20
2018-04-06T02:47:03.258Z,38.30
2018-04-06T02:49:30.830Z,38.20
2018-04-06T02:51:58.431Z,38.30
2018-04-06T02:54:26.018Z,38.20
2018-04-06T02:56:53.621Z,38.20
2018-04-06T02:59:21.965Z,38.30
2018-04-06T03:01:49.565Z,38.20
2018-04-06T03:04:17.167Z,38.30
2018-04-06T03:06:44.745Z,38.30
2018-04-06T03:09:12.345Z,38.20
2018-04-06T03:11:39.926Z,38.20
2018-04-06T03:14:07.528Z,38.20
2018-04-06T03:16:35.095Z,38.20
2018-04-06T03:19:02.692Z,38.20
2018-04-06T03:21:30.291Z,38.20
2018-04-06T03:23:58.642Z,38.30
2018-04-06T03:26:26.243Z,38.30
2018-04-06T03:28:53.814Z,38.20
2018-04-06T03:31:21.414Z,38.20
2018-04-06T03:33:48.984Z,38.20
2018-04-06T03:36:16.591Z,38.20
2018-04-06T03:38:44.257Z,38.20
2018-04-06T03:41:11.804Z,38.20
2018-04-06T03:43:39.408Z,38.20
2018-04-06T03:46:07.756Z,38.20
2018-04-06T03:48:35.362Z,38.20
2018-04-06T03:51:02.946Z,38.20
2018-04-06T03:53:30.548Z,38.20
2018-04-06T03:55:58.182Z,38.10
2018-04-06T03:58:25.756Z,38.20
2018-04-06T04:00:53.360Z,38.20
2018-04-06T04:03:20.947Z,38.10
2018-04-06T04:05:48.549Z,38.10
2018-04-06T04:08:16.121Z,38.10
2018-04-06T04:10:43.768Z,38.10
2018-04-06T04:13:12.134Z,38.40
2018-04-06T04:15:39.711Z,38.00
2018-04-06T04:18:07.313Z,38.10
2018-04-06T04:20:34.893Z,38.10
2018-04-06T04:23:02.496Z,38.10
2018-04-06T04:25:30.076Z,38.10
2018-04-06T04:27:57.651Z,38.10
2018-04-06T04:30:26.039Z,38.10
2018-04-06T04:32:53.616Z,38.00
2018-04-06T04:35:21.215Z,38.10
2018-04-06T04:37:48.815Z,38.10
2018-04-06T04:40:17.152Z,38.10
2018-04-06T04:42:45.516Z,38.10
2018-04-06T04:45:13.083Z,38.10
2018-04-06T04:47:40.692Z,38.10
2018-04-06T04:50:08.265Z,38.00
2018-04-06T04:52:35.863Z,38.10
2018-04-06T04:55:04.067Z,38.10
2018-04-06T04:57:31.668Z,38.10
2018-04-06T05:00:00.032Z,38.00
2018-04-06T05:02:27.627Z,38.00
2018-04-06T05:04:55.228Z,38.00
2018-04-06T05:07:22.803Z,38.00
2018-04-06T05:09:50.413Z,38.10
2018-04-06T05:12:18.775Z,38.10
2018-04-06T05:14:46.343Z,38.00
2018-04-06T05:17:13.939Z,38.10
2018-04-06T05:19:41.516Z,38.10
2018-04-06T05:22:09.116Z,38.10
2018-04-06T05:24:36.850Z,38.10
2018-04-06T05:27:04.400Z,38.10
2018-04-06T05:29:32.008Z,38.10
2018-04-06T05:32:00.140Z,38.10
2018-04-06T05:34:28.512Z,38.10
2018-04-06T05:36:56.085Z,38.10
2018-04-06T05:39:23.696Z,38.10
2018-04-06T05:41:51.300Z,38.10
2018-04-06T05:44:19.660Z,38.20
2018-04-06T05:46:47.264Z,38.20
2018-04-06T05:49:14.837Z,38.20
2018-04-06T05:51:42.436Z,38.20
2018-04-06T05:54:10.004Z,38.30
2018-04-06T05:56:37.635Z,38.30
2018-04-06T05:59:05.979Z,38.40
2018-04-06T06:01:33.580Z,38.40
2018-04-06T06:04:01.180Z,38.50
2018-04-06T06:06:28.747Z,38.60
2018-04-06T06:08:56.339Z,38.60
2018-04-06T06:11:23.920Z,38.60
2018-04-06T06:13:51.519Z,38.70
2018-04-06T06:16:19.090Z,38.70
2018-04-06T06:18:46.686Z,38.80
2018-04-06T06:21:14.287Z,38.80
2018-04-06T06:23:41.872Z,38.80
2018-04-06T06:26:09.480Z,39.00
2018-04-06T06:28:37.055Z,39.10
2018-04-06T06:31:05.428Z,39.10
2018-04-06T06:33:32.995Z,39.10
2018-04-06T06:36:00.595Z,39.10
2018-04-06T06:38:28.168Z,39.20
2018-04-06T06:40:55.948Z,39.20
2018-04-06T06:43:23.552Z,39.20
2018-04-06T06:45:51.128Z,39.20
2018-04-06T06:48:18.799Z,39.10
2018-04-06T06:50:46.403Z,39.20
2018-04-06T06:53:14.000Z,39.20
2018-04-06T06:55:41.620Z,39.10
2018-04-06T06:58:10.113Z,39.20
2018-04-06T07:00:37.720Z,39.10
2018-04-06T07:03:06.062Z,39.20
2018-04-06T07:05:33.678Z,39.10
2018-04-06T07:08:01.244Z,39.20
2018-04-06T07:10:28.848Z,39.20
2018-04-06T07:12:56.422Z,39.20
2018-04-06T07:15:24.295Z,39.20
2018-04-06T07:17:51.869Z,39.20
2018-04-06T07:20:19.779Z,39.10
2018-04-06T07:22:47.380Z,39.30
2018-04-06T07:25:14.948Z,39.40
2018-04-06T07:27:42.544Z,39.40
2018-04-06T07:30:10.432Z,39.40
2018-04-06T07:32:38.032Z,39.30
2018-04-06T07:35:05.603Z,39.30
2018-04-06T07:37:33.203Z,39.20
2018-04-06T07:40:00.801Z,39.10
2018-04-06T07:42:28.403Z,39.20
2018-04-06T07:44:56.012Z,39.10
2018-04-06T07:47:24.396Z,39.00
2018-04-06T07:49:52.771Z,39.00
2018-04-06T07:52:20.378Z,39.00
2018-04-06T07:54:47.983Z,39.00
2018-04-06T07:57:16.319Z,39.20
2018-04-06T07:59:43.916Z,39.10
2018-04-06T08:02:11.582Z,39.20
2018-04-06T08:04:39.176Z,39.10
2018-04-06T08:07:06.776Z,39.10
2018-04-06T08:09:34.352Z,39.00
2018-04-06T08:12:01.955Z,39.00
2018-04-06T08:14:29.535Z,39.00
2018-04-06T08:16:57.155Z,39.00
2018-04-06T08:19:24.756Z,39.00
2018-04-06T08:21:53.100Z,39.00
2018-04-06T08:24:20.708Z,38.90
2018-04-06T08:26:48.303Z,38.90
2018-04-06T08:29:17.421Z,38.80
2018-04-06T08:31:44.996Z,38.80
2018-04-06T08:34:12.596Z,38.90
2018-04-06T08:36:40.344Z,38.90
2018-04-06T08:39:08.293Z,38.90
2018-04-06T08:41:36.664Z,38.90
2018-04-06T08:44:04.237Z,38.90
2018-04-06T08:46:31.840Z,38.90
2018-04-06T08:48:59.444Z,38.90
2018-04-06T08:51:27.816Z,39.00
2018-04-06T08:53:55.424Z,38.90
2018-04-06T08:56:22.995Z,38.90
2018-04-06T08:58:51.416Z,38.70
2018-04-06T09:01:19.755Z,38.20
2018-04-06T09:03:47.367Z,38.70
2018-04-06T09:06:14.944Z,38.70
2018-04-06T09:08:42.572Z,38.60
2018-04-06T09:11:10.180Z,38.50
2018-04-06T09:13:38.143Z,38.60
2018-04-06T09:16:05.772Z,38.60
2018-04-06T09:18:33.343Z,38.50
2018-04-06T09:21:00.948Z,38.40
2018-04-06T09:23:28.528Z,38.50
2018-04-06T09:25:56.136Z,38.90
2018-04-06T09:28:23.739Z,39.30
2018-04-06T09:30:51.315Z,39.40
2018-04-06T09:33:18.921Z,39.70
2018-04-06T09:35:46.504Z,38.90
2018-04-06T09:38:14.112Z,38.80
2018-04-06T09:40:42.452Z,38.70
2018-04-06T09:43:10.060Z,38.70
2018-04-06T09:45:37.666Z,38.90
2018-04-06T09:48:05.248Z,38.50
2018-04-06T09:50:32.847Z,38.70
2018-04-06T09:53:00.420Z,38.60
2018-04-06T09:55:28.041Z,38.60
2018-04-06T09:57:55.619Z,38.50
2018-04-06T10:00:28.924Z,38.60
2018-04-06T10:02:57.396Z,38.60
2018-04-06T10:05:25.224Z,38.70
2018-04-06T10:07:52.837Z,39.00
2018-04-06T10:10:20.423Z,38.90
2018-04-06T10:12:48.028Z,38.70
2018-04-06T10:15:16.308Z,38.70
2018-04-06T10:17:43.940Z,38.80
2018-04-06T10:20:11.880Z,38.90
2018-04-06T10:22:39.454Z,38.80
2018-04-06T10:25:07.988Z,38.70
2018-04-06T10:27:35.555Z,39.30
2018-04-06T10:30:04.859Z,38.30
2018-04-06T10:32:32.704Z,38.30
2018-04-06T10:35:00.309Z,38.30
2018-04-06T10:37:27.922Z,38.20
2018-04-06T10:39:55.491Z,38.30
2018-04-06T10:42:23.087Z,38.40
2018-04-06T10:44:50.651Z,38.50
2018-04-06T10:47:18.256Z,38.30
2018-04-06T10:49:45.831Z,38.30
2018-04-06T10:52:13.436Z,38.20
2018-04-06T10:54:41.036Z,38.20
2018-04-06T10:57:08.608Z,38.20
2018-04-06T10:59:36.211Z,38.20
2018-04-06T11:02:03.788Z,38.40
2018-04-06T11:04:31.400Z,38.50
2018-04-06T11:06:58.975Z,38.50
2018-04-06T11:09:26.580Z,38.50
2018-04-06T11:11:54.163Z,38.50
2018-04-06T11:14:23.284Z,38.30
2018-04-06T11:16:50.856Z,38.30
2018-04-06T11:19:18.459Z,38.40
2018-04-06T11:21:46.028Z,38.40
2018-04-06T11:24:13.628Z,38.60
2018-04-06T11:26:41.236Z,38.70
2018-04-06T11:29:08.812Z,38.70
2018-04-06T11:31:36.543Z,38.90
2018-04-06T11:34:04.136Z,38.90
2018-04-06T11:36:31.740Z,38.90
2018-04-06T11:38:59.319Z,38.80
2018-04-06T11:41:26.930Z,38.80
2018-04-06T11:43:54.531Z,38.70
2018-04-06T11:46:22.131Z,38.70
2018-04-06T11:48:49.743Z,39.00
2018-04-06T11:51:17.326Z,39.30
2018-04-06T11:53:44.941Z,39.30
2018-04-06T11:56:12.524Z,38.90
2018-04-06T11:58:40.128Z,39.10
2018-04-06T12:01:07.736Z,39.10
2018-04-06T12:03:36.087Z,39.00
2018-04-06T12:06:03.720Z,38.90
2018-04-06T12:08:32.068Z,39.20
2018-04-06T12:10:59.672Z,39.80
2018-04-06T12:13:27.243Z,39.10
2018-04-06T12:15:54.846Z,38.90
2018-04-06T12:18:22.451Z,39.10
2018-04-06T12:20:50.027Z,39.10
2018-04-06T12:23:17.632Z,39.20
2018-04-06T12:25:45.208Z,39.10
2018-04-06T12:28:12.820Z,39.10
2018-04-06T12:30:41.185Z,39.00
2018-04-06T12:33:08.820Z,38.90
2018-04-06T12:35:37.157Z,39.10
2018-04-06T12:38:04.787Z,39.10
2018-04-06T12:40:32.397Z,39.20
2018-04-06T12:43:00.946Z,39.50
2018-04-06T12:45:28.556Z,39.50
2018-04-06T12:47:56.166Z,39.50
2018-04-06T12:50:24.708Z,40.00
2018-04-06T12:52:52.284Z,39.40
2018-04-06T12:55:20.655Z,39.70
2018-04-06T12:57:48.255Z,39.70
2018-04-06T13:00:16.098Z,39.60
2018-04-06T13:02:43.728Z,39.60
2018-04-06T13:05:11.513Z,39.70
2018-04-06T13:07:39.120Z,39.70
2018-04-06T13:10:07.488Z,39.60
2018-04-06T13:12:35.096Z,39.50
2018-04-06T13:15:03.477Z,39.40
2018-04-06T13:17:31.049Z,39.30
2018-04-06T13:19:58.902Z,39.50
2018-04-06T13:22:27.262Z,39.50
2018-04-06T13:24:54.871Z,39.50
2018-04-06T13:27:22.439Z,39.50
2018-04-06T13:29:50.072Z,39.40
2018-04-06T13:32:18.443Z,40.40
2018-04-06T13:34:46.028Z,39.70
2018-04-06T13:37:13.682Z,39.70
2018-04-06T13:39:42.008Z,39.50
2018-04-06T13:42:09.615Z,39.50
2018-04-06T13:44:37.220Z,40.30
2018-04-06T13:47:06.303Z,39.50
2018-04-06T13:49:33.940Z,39.50
2018-04-06T13:52:02.284Z,39.80
2018-04-06T13:54:29.900Z,39.80
2018-04-06T13:56:57.495Z,39.60
2018-04-06T13:59:25.092Z,39.60
2018-04-06T14:01:52.700Z,39.70
2018-04-06T14:04:21.035Z,39.80
2018-04-06T14:06:48.635Z,39.80
2018-04-06T14:09:16.211Z,39.70
2018-04-06T14:11:43.808Z,39.70
2018-04-06T14:14:11.436Z,39.70
2018-04-06T14:16:39.004Z,39.50
2018-04-06T14:19:06.608Z,40.20
2018-04-06T14:21:34.952Z,39.50
2018-04-06T14:24:02.548Z,39.50
2018-04-06T14:26:30.148Z,39.60
2018-04-06T14:28:58.144Z,39.90
2018-04-06T14:31:25.748Z,39.90
2018-04-06T14:33:54.832Z,39.70
2018-04-06T14:36:22.428Z,39.60
2018-04-06T14:38:50.001Z,39.50
2018-04-06T14:41:17.632Z,39.50
2018-04-06T14:43:45.203Z,39.60
2018-04-06T14:46:12.807Z,39.80
2018-04-06T14:48:40.406Z,39.80
2018-04-06T14:51:07.980Z,39.90
2018-04-06T14:53:36.352Z,40.70
2018-04-06T14:56:03.920Z,40.00
2018-04-06T14:58:31.520Z,40.00
2018-04-06T15:00:59.107Z,40.00
2018-04-06T15:03:26.707Z,39.90
2018-04-06T15:05:54.336Z,40.10
2018-04-06T15:08:22.667Z,40.30
2018-04-06T15:10:50.277Z,40.20
2018-04-06T15:13:17.844Z,40.10
2018-04-06T15:15:46.212Z,40.60
2018-04-06T15:18:13.779Z,40.50
2018-04-06T15:20:41.380Z,40.60
2018-04-06T15:23:08.984Z,40.30
2018-04-06T15:25:36.555Z,40.40
2018-04-06T15:28:04.157Z,40.60
2018-04-06T15:30:31.728Z,40.40
2018-04-06T15:32:59.359Z,40.50
2018-04-06T15:35:26.960Z,40.50
2018-04-06T15:37:54.568Z,40.70
2018-04-06T15:40:22.940Z,40.70
2018-04-06T15:42:50.516Z,40.60
2018-04-06T15:45:18.541Z,40.50
2018-04-06T15:47:46.113Z,40.50
2018-04-06T15:50:13.937Z,40.20
2018-04-06T15:52:41.507Z,40.10
2018-04-06T15:55:09.107Z,40.20
2018-04-06T15:57:36.703Z,40.30
2018-04-06T16:00:04.684Z,40.30
2018-04-06T16:02:32.313Z,40.20
2018-04-06T16:04:59.895Z,40.40
2018-04-06T16:07:27.580Z,40.50
2018-04-06T16:09:55.184Z,40.20
2018-04-06T16:12:22.787Z,40.30
2018-04-06T16:14:50.380Z,40.30
2018-04-06T16:17:17.979Z,40.90
2018-04-06T16:19:46.345Z,40.40
2018-04-06T16:22:13.972Z,40.40
2018-04-06T16:24:41.580Z,40.40
2018-04-06T16:27:09.975Z,40.20
2018-04-06T16:29:37.576Z,40.20
2018-04-06T16:32:05.942Z,40.40
2018-04-06T16:34:33.544Z,40.20
2018-04-06T16:37:01.196Z,40.10
2018-04-06T16:39:28.803Z,40.30
2018-04-06T16:41:56.380Z,40.30
2018-04-06T16:44:23.986Z,40.10
2018-04-06T16:46:51.607Z,40.00
2018-04-06T16:49:19.217Z,40.10
2018-04-06T16:51:46.823Z,40.20
2018-04-06T16:54:14.400Z,40.10
2018-04-06T16:56:42.051Z,40.20
2018-04-06T16:59:09.627Z,40.20
2018-04-06T17:01:37.249Z,40.20
2018-04-06T17:04:04.835Z,40.10
2018-04-06T17:06:32.448Z,40.10
2018-04-06T17:09:00.063Z,40.00
2018-04-06T17:11:27.652Z,40.20
2018-04-06T17:13:56.036Z,40.20
2018-04-06T17:16:23.611Z,40.10
2018-04-06T17:18:51.224Z,40.00
2018-04-06T17:21:18.803Z,40.30
2018-04-06T17:23:46.416Z,40.10
2018-04-06T17:26:14.771Z,40.00
2018-04-06T17:28:42.395Z,39.90
2018-04-06T17:31:10.008Z,40.00
2018-04-06T17:33:37.588Z,39.90
2018-04-06T17:36:05.200Z,39.90
2018-04-06T17:38:32.775Z,40.00
2018-04-06T17:41:00.384Z,40.00
2018-04-06T17:43:28.778Z,39.90
2018-04-06T17:45:57.900Z,39.90
2018-04-06T17:48:25.507Z,39.90
2018-04-06T17:50:53.084Z,39.90
2018-04-06T17:53:20.696Z,39.90
2018-04-06T17:55:48.276Z,39.80
2018-04-06T17:58:15.885Z,39.80
2018-04-06T18:00:43.475Z,39.70
2018-04-06T18:03:11.091Z,39.70
2018-04-06T18:05:38.711Z,39.80
2018-04-06T18:08:06.292Z,39.70
2018-04-06T18:10:33.900Z,39.60
2018-04-06T18:13:01.485Z,39.50
2018-04-06T18:15:29.123Z,39.40
2018-04-06T18:17:56.757Z,39.40
2018-04-06T18:20:24.915Z,39.40
2018-04-06T18:22:52.523Z,39.20
2018-04-06T18:25:20.867Z,39.40
2018-04-06T18:27:48.503Z,39.30
2018-04-06T18:30:17.228Z,39.30
2018-04-06T18:32:45.612Z,39.10
2018-04-06T18:35:13.492Z,39.10
2018-04-06T18:37:41.084Z,39.20
2018-04-06T18:40:08.699Z,39.20
2018-04-06T18:42:36.280Z,39.10
2018-04-06T18:45:03.896Z,39.20
2018-04-06T18:47:31.515Z,39.20
2018-04-06T18:49:59.879Z,39.30
2018-04-06T18:52:27.486Z,39.30
2018-04-06T18:54:55.064Z,39.30
2018-04-06T18:57:22.704Z,39.30
2018-04-06T18:59:50.284Z,39.40
2018-04-06T19:02:18.824Z,39.50
2018-04-06T19:04:46.431Z,39.50
2018-04-06T19:07:14.011Z,39.40
2018-04-06T19:09:41.616Z,39.50
2018-04-06T19:12:09.191Z,39.50
2018-04-06T19:14:36.799Z,39.50
2018-04-06T19:17:04.399Z,39.50
2018-04-06T19:19:32.031Z,39.40
2018-04-06T19:21:59.636Z,39.50
2018-04-06T19:24:28.035Z,39.50
2018-04-06T19:26:56.412Z,39.60
2018-04-06T19:29:23.997Z,39.50
2018-04-06T19:31:51.624Z,39.60
2018-04-06T19:34:19.968Z,39.50
2018-04-06T19:36:47.580Z,39.50
2018-04-06T19:39:15.161Z,39.50
2018-04-06T19:41:42.771Z,39.50
2018-04-06T19:44:10.384Z,39.50
2018-04-06T19:46:38.724Z,39.60
2018-04-06T19:49:06.333Z,39.60
2018-04-06T19:51:33.904Z,39.60
2018-04-06T19:54:01.507Z,39.50
2018-04-06T19:56:29.084Z,39.60
2018-04-06T19:58:56.691Z,39.50
2018-04-06T20:01:24.267Z,39.60
2018-04-06T20:03:51.868Z,39.70
2018-04-06T20:06:19.478Z,39.70
2018-04-06T20:08:47.057Z,39.70
2018-04-06T20:11:14.664Z,39.60
2018-04-06T20:13:43.008Z,39.90
2018-04-06T20:16:10.611Z,39.10
2018-04-06T20:18:38.194Z,39.00
2018-04-06T20:21:05.795Z,39.00
2018-04-06T20:23:33.433Z,38.90
2018-04-06T20:26:01.012Z,38.40
2018-04-06T20:28:28.620Z,38.60
2018-04-06T20:30:56.964Z,39.30
2018-04-06T20:33:24.568Z,38.50
2018-04-06T20:35:52.188Z,38.80
2018-04-06T20:38:19.772Z,38.90
2018-04-06T20:40:48.149Z,39.40
2018-04-06T20:43:16.500Z,38.80
2018-04-06T20:45:44.112Z,38.80
2018-04-06T20:48:11.695Z,38.70
2018-04-06T20:50:40.076Z,39.00
2018-04-06T20:53:07.692Z,38.90
2018-04-06T20:55:36.044Z,38.80
2018-04-06T20:58:03.657Z,38.70
2018-04-06T21:00:31.268Z,38.70
2018-04-06T21:02:59.667Z,38.10
2018-04-06T21:05:28.016Z,38.00
2018-04-06T21:07:55.636Z,38.00
2018-04-06T21:10:23.207Z,37.70
2018-04-06T21:12:50.815Z,37.10
2018-04-06T21:15:19.225Z,37.50
2018-04-06T21:17:47.584Z,36.80
2018-04-06T21:20:15.186Z,36.70
2018-04-06T21:22:42.793Z,36.70
2018-04-06T21:25:11.179Z,36.30
2018-04-06T21:27:38.756Z,36.30
2018-04-06T21:30:06.396Z,36.30
2018-04-06T21:32:34.000Z,36.20
2018-04-06T21:35:01.568Z,36.10
2018-04-06T21:37:29.178Z,36.10
2018-04-06T21:39:56.743Z,36.00
2018-04-06T21:42:24.339Z,36.40
2018-04-06T21:44:51.940Z,36.70
2018-04-06T21:47:19.569Z,36.30
2018-04-06T21:49:47.935Z,36.70
2018-04-06T21:52:15.513Z,36.30
2018-04-06T21:54:43.127Z,36.50
2018-04-06T21:57:10.728Z,35.90
2018-04-06T21:59:39.120Z,35.80
2018-04-06T22:02:06.724Z,35.70
2018-04-06T22:04:35.095Z,35.80
2018-04-06T22:07:02.667Z,35.70
2018-04-06T22:09:30.302Z,35.60
2018-04-06T22:11:58.675Z,35.50
2018-04-06T22:14:26.255Z,35.40
2018-04-06T22:16:55.368Z,35.70
2018-04-06T22:19:22.961Z,35.30
2018-04-06T22:21:50.567Z,35.40
2018-04-06T22:24:18.140Z,35.40
2018-04-06T22:26:45.767Z,35.30
2018-04-06T22:29:13.372Z,35.20
2018-04-06T22:31:40.949Z,35.20
2018-04-06T22:34:08.549Z,35.00
2018-04-06T22:36:36.131Z,34.80
2018-04-06T22:39:03.805Z,34.90
2018-04-06T22:41:31.377Z,34.70
2018-04-06T22:43:58.948Z,34.70
2018-04-06T22:46:27.311Z,34.60
2018-04-06T22:48:54.884Z,34.50
2018-04-06T22:51:22.506Z,34.60
2018-04-06T22:53:50.877Z,34.40
2018-04-06T22:56:18.452Z,34.40
2018-04-06T22:58:46.055Z,34.30
2018-04-06T23:01:13.632Z,34.40
2018-04-06T23:03:41.236Z,34.40
2018-04-06T23:06:08.808Z,34.30
2018-04-06T23:08:36.412Z,34.20
2018-04-06T23:11:04.016Z,34.30
2018-04-06T23:13:32.359Z,34.20
2018-04-06T23:15:59.959Z,34.20
2018-04-06T23:18:27.531Z,34.10
2018-04-06T23:20:55.136Z,34.10
2018-04-06T23:23:22.719Z,34.00
2018-04-06T23:25:50.454Z,34.10
2018-04-06T23:28:18.058Z,34.00
2018-04-06T23:30:45.632Z,34.00
2018-04-06T23:33:13.231Z,34.00
2018-04-06T23:35:40.805Z,34.00
2018-04-06T23:38:08.439Z,33.90
2018-04-06T23:40:36.011Z,33.90
2018-04-06T23:43:03.611Z,33.90
2018-04-06T23:45:31.224Z,33.90
2018-04-06T23:47:58.797Z,33.90
2018-04-06T23:50:26.637Z,33.90
2018-04-06T23:52:54.211Z,34.00
2018-04-06T23:55:21.819Z,34.00
2018-04-06T23:57:49.392Z,33.80
